createdAt,value
2018-12-17T00:00:22.316Z,988.83
2018-12-17T00:01:22.452Z,988.81
2018-12-17T00:02:37.989Z,988.82
2018-12-17T00:03:22.740Z,988.85
2018-12-17T00:04:22.910Z,988.84
2018-12-17T00:05:23.059Z,988.84
2018-12-17T00:06:24.774Z,988.87
2018-12-17T00:07:23.288Z,988.90
2018-12-17T00:08:23.412Z,988.91
2018-12-17T00:09:23.552Z,988.90
2018-12-17T00:10:23.676Z,988.91
2018-12-17T00:11:23.836Z,988.94
2018-12-17T00:12:23.937Z,988.92
2018-12-17T00:13:24.095Z,988.89
2018-12-17T00:14:24.208Z,988.93
2018-12-17T00:15:24.333Z,988.91
2018-12-17T00:16:24.462Z,988.92
2018-12-17T00:17:24.594Z,988.97
2018-12-17T00:18:24.722Z,988.96
2018-12-17T00:19:24.847Z,988.98
2018-12-17T00:20:24.994Z,988.96
2018-12-17T00:21:25.162Z,988.98
2018-12-17T00:22:25.321Z,988.96
2018-12-17T00:23:25.448Z,988.97
2018-12-17T00:24:25.575Z,988.95
2018-12-17T00:25:25.713Z,989.00
2018-12-17T00:26:28.498Z,989.01
2018-12-17T00:27:26.004Z,989.02
2018-12-17T00:28:26.132Z,989.01
2018-12-17T00:29:26.273Z,988.99
2018-12-17T00:30:26.397Z,989.02
2018-12-17T00:31:26.524Z,989.02
2018-12-17T00:32:27.436Z,989.02
2018-12-17T00:34:59.356Z,989.03
2018-12-17T00:35:59.470Z,988.94
2018-12-17T00:36:59.600Z,988.93
2018-12-17T00:37:59.726Z,988.97
2018-12-17T00:38:59.875Z,988.97
2018-12-17T00:40:00.047Z,988.92
2018-12-17T00:41:00.049Z,988.94
2018-12-17T00:42:00.174Z,988.95
2018-12-17T00:43:00.319Z,988.91
2018-12-17T00:44:16.252Z,988.87
2018-12-17T00:45:00.632Z,988.91
2018-12-17T00:46:00.758Z,988.88
2018-12-17T00:47:00.887Z,988.85
2018-12-17T00:48:01.026Z,988.82
2018-12-17T00:49:01.143Z,988.85
2018-12-17T00:50:01.271Z,988.86
2018-12-17T00:51:01.493Z,988.84
2018-12-17T00:52:01.540Z,988.92
2018-12-17T00:53:01.670Z,988.90
2018-12-17T00:54:01.797Z,988.90
2018-12-17T00:55:01.937Z,988.96
2018-12-17T00:56:02.061Z,988.97
2018-12-17T00:57:02.187Z,988.95
2018-12-17T00:58:02.310Z,988.94
2018-12-17T00:59:02.449Z,988.92
2018-12-17T01:00:02.567Z,988.93
2018-12-17T01:01:03.622Z,988.92
2018-12-17T01:02:02.790Z,988.87
2018-12-17T01:03:02.916Z,988.92
2018-12-17T01:04:03.040Z,988.89
2018-12-17T01:05:03.173Z,988.90
2018-12-17T01:06:03.311Z,988.97
2018-12-17T01:07:03.423Z,989.05
2018-12-17T01:08:03.560Z,989.03
2018-12-17T01:09:03.688Z,989.03
2018-12-17T01:10:03.832Z,989.08
2018-12-17T01:11:03.963Z,989.08
2018-12-17T01:12:04.095Z,989.04
2018-12-17T01:13:04.222Z,989.12
2018-12-17T01:14:04.352Z,989.05
2018-12-17T01:15:04.481Z,989.02
2018-12-17T01:16:04.606Z,988.99
2018-12-17T01:17:04.738Z,989.07
2018-12-17T01:18:04.860Z,989.12
2018-12-17T01:19:05.003Z,989.11
2018-12-17T01:20:05.147Z,989.10
2018-12-17T01:21:05.274Z,989.10
2018-12-17T01:22:05.398Z,989.10
2018-12-17T01:23:05.527Z,989.16
2018-12-17T01:24:05.654Z,989.11
2018-12-17T01:25:05.786Z,989.15
2018-12-17T01:26:05.933Z,989.17
2018-12-17T01:27:06.059Z,989.12
2018-12-17T01:28:06.188Z,989.16
2018-12-17T01:29:06.326Z,989.20
2018-12-17T01:30:06.480Z,989.21
2018-12-17T01:31:06.598Z,989.22
2018-12-17T01:32:06.727Z,989.25
2018-12-17T01:33:06.859Z,989.27
2018-12-17T01:34:07.016Z,989.26
2018-12-17T01:35:07.146Z,989.25
2018-12-17T01:36:07.272Z,989.25
2018-12-17T01:37:07.467Z,989.24
2018-12-17T01:38:07.537Z,989.23
2018-12-17T01:39:07.665Z,989.30
2018-12-17T01:40:07.782Z,989.27
2018-12-17T01:41:07.923Z,989.30
2018-12-17T01:42:08.083Z,989.29
2018-12-17T01:43:08.208Z,989.30
2018-12-17T01:44:08.336Z,989.30
2018-12-17T01:45:08.486Z,989.35
2018-12-17T01:46:08.619Z,989.31
2018-12-17T01:47:08.767Z,989.32
2018-12-17T01:48:08.878Z,989.30
2018-12-17T01:49:09.007Z,989.35
2018-12-17T01:50:09.182Z,989.33
2018-12-17T01:51:09.265Z,989.32
2018-12-17T01:52:09.401Z,989.36
2018-12-17T01:53:09.526Z,989.33
2018-12-17T01:54:09.668Z,989.34
2018-12-17T01:55:09.794Z,989.38
2018-12-17T01:56:09.919Z,989.35
2018-12-17T01:57:10.052Z,989.34
2018-12-17T01:58:10.176Z,989.29
2018-12-17T01:59:10.306Z,989.34
2018-12-17T02:00:10.437Z,989.31
2018-12-17T02:01:10.563Z,989.31
2018-12-17T02:02:10.765Z,989.25
2018-12-17T02:03:10.763Z,989.31
2018-12-17T02:04:10.971Z,989.26
2018-12-17T02:05:11.018Z,989.31
2018-12-17T02:06:11.151Z,989.26
2018-12-17T02:07:11.278Z,989.29
2018-12-17T02:08:11.410Z,989.31
2018-12-17T02:09:11.536Z,989.28
2018-12-17T02:10:11.659Z,989.29
2018-12-17T02:11:11.792Z,989.30
2018-12-17T02:12:11.921Z,989.30
2018-12-17T02:13:12.049Z,989.30
2018-12-17T02:14:12.175Z,989.31
2018-12-17T02:15:12.379Z,989.31
2018-12-17T02:16:12.465Z,989.34
2018-12-17T02:17:12.636Z,989.34
2018-12-17T02:18:12.763Z,989.33
2018-12-17T02:19:12.894Z,989.32
2018-12-17T02:20:13.023Z,989.35
2018-12-17T02:21:13.149Z,989.39
2018-12-17T02:22:13.279Z,989.37
2018-12-17T02:23:13.428Z,989.36
2018-12-17T02:24:13.553Z,989.41
2018-12-17T02:25:13.678Z,989.43
2018-12-17T02:26:13.804Z,989.44
2018-12-17T02:27:13.948Z,989.44
2018-12-17T02:28:14.150Z,989.45
2018-12-17T02:29:14.201Z,989.43
2018-12-17T02:30:14.370Z,989.47
2018-12-17T02:31:14.491Z,989.45
2018-12-17T02:32:14.619Z,989.45
2018-12-17T02:33:14.746Z,989.45
2018-12-17T02:34:14.888Z,989.45
2018-12-17T02:35:15.008Z,989.46
2018-12-17T02:36:15.133Z,989.48
2018-12-17T02:37:15.258Z,989.52
2018-12-17T02:38:15.406Z,989.54
2018-12-17T02:39:15.596Z,989.54
2018-12-17T02:40:15.597Z,989.60
2018-12-17T02:41:15.728Z,989.55
2018-12-17T02:42:15.876Z,989.60
2018-12-17T02:43:15.996Z,989.56
2018-12-17T02:44:16.133Z,989.58
2018-12-17T02:45:16.258Z,989.59
2018-12-17T02:46:16.407Z,989.62
2018-12-17T02:47:16.534Z,989.62
2018-12-17T02:48:16.661Z,989.64
2018-12-17T02:49:16.791Z,989.66
2018-12-17T02:50:16.918Z,989.63
2018-12-17T02:51:17.037Z,989.63
2018-12-17T02:52:17.168Z,989.63
2018-12-17T02:53:17.301Z,989.63
2018-12-17T02:54:17.417Z,989.64
2018-12-17T02:55:17.545Z,989.62
2018-12-17T02:56:17.673Z,989.66
2018-12-17T02:57:17.801Z,989.65
2018-12-17T02:58:17.926Z,989.70
2018-12-17T02:59:18.058Z,989.71
2018-12-17T03:00:18.181Z,989.67
2018-12-17T03:01:18.309Z,989.71
2018-12-17T03:02:18.437Z,989.70
2018-12-17T03:03:18.572Z,989.72
2018-12-17T03:04:18.699Z,989.72
2018-12-17T03:05:18.831Z,989.71
2018-12-17T03:06:18.968Z,989.70
2018-12-17T03:07:19.094Z,989.70
2018-12-17T03:08:19.220Z,989.69
2018-12-17T03:09:19.344Z,989.74
2018-12-17T03:10:19.478Z,989.77
2018-12-17T03:11:19.605Z,989.76
2018-12-17T03:12:19.736Z,989.76
2018-12-17T03:13:19.861Z,989.75
2018-12-17T03:14:19.991Z,989.81
2018-12-17T03:15:20.127Z,989.76
2018-12-17T03:16:20.271Z,989.76
2018-12-17T03:17:20.400Z,989.74
2018-12-17T03:18:20.526Z,989.73
2018-12-17T03:19:20.656Z,989.78
2018-12-17T03:20:20.807Z,989.75
2018-12-17T03:21:30.473Z,989.73
2018-12-17T03:22:21.091Z,989.75
2018-12-17T03:23:21.218Z,989.78
2018-12-17T03:24:21.357Z,989.81
2018-12-17T03:25:21.534Z,989.78
2018-12-17T03:26:21.668Z,989.81
2018-12-17T03:27:21.786Z,989.84
2018-12-17T03:28:21.938Z,989.79
2018-12-17T03:29:22.052Z,989.80
2018-12-17T03:30:22.196Z,989.81
2018-12-17T03:31:22.318Z,989.78
2018-12-17T03:32:22.471Z,989.76
2018-12-17T03:33:22.582Z,989.78
2018-12-17T03:34:22.710Z,989.76
2018-12-17T03:35:22.844Z,989.77
2018-12-17T03:36:22.992Z,989.80
2018-12-17T03:37:23.151Z,989.78
2018-12-17T03:38:23.274Z,989.78
2018-12-17T03:39:23.413Z,989.80
2018-12-17T03:40:23.550Z,989.81
2018-12-17T03:41:23.694Z,989.82
2018-12-17T03:42:23.819Z,989.80
2018-12-17T03:43:23.952Z,989.80
2018-12-17T03:44:24.098Z,989.81
2018-12-17T03:45:24.226Z,989.80
2018-12-17T03:46:24.351Z,989.82
2018-12-17T03:47:24.485Z,989.83
2018-12-17T03:48:24.623Z,989.83
2018-12-17T03:49:24.744Z,989.88
2018-12-17T03:50:24.879Z,989.90
2018-12-17T03:51:25.005Z,989.87
2018-12-17T03:52:25.131Z,989.88
2018-12-17T03:53:25.257Z,989.89
2018-12-17T03:54:25.386Z,989.92
2018-12-17T03:55:25.511Z,989.92
2018-12-17T03:56:25.643Z,989.92
2018-12-17T03:57:25.770Z,989.97
2018-12-17T03:58:25.901Z,990.00
2018-12-17T03:59:26.032Z,990.00
2018-12-17T04:00:26.175Z,990.00
2018-12-17T04:01:26.302Z,990.00
2018-12-17T04:02:26.428Z,990.01
2018-12-17T04:03:26.556Z,990.02
2018-12-17T04:04:26.685Z,989.97
2018-12-17T04:05:26.816Z,990.02
2018-12-17T04:06:26.946Z,990.05
2018-12-17T04:07:27.064Z,990.04
2018-12-17T04:08:27.193Z,990.07
2018-12-17T04:09:27.318Z,990.12
2018-12-17T04:10:27.450Z,990.11
2018-12-17T04:11:27.582Z,990.20
2018-12-17T04:12:27.705Z,990.22
2018-12-17T04:13:27.834Z,990.20
2018-12-17T04:14:27.958Z,990.23
2018-12-17T04:15:28.096Z,990.18
2018-12-17T04:16:28.219Z,990.23
2018-12-17T04:17:28.360Z,990.29
2018-12-17T04:18:28.491Z,990.32
2018-12-17T04:19:28.620Z,990.29
2018-12-17T04:20:28.752Z,990.31
2018-12-17T04:21:28.882Z,990.33
2018-12-17T04:22:29.093Z,990.28
2018-12-17T04:23:36.871Z,990.28
2018-12-17T04:24:29.258Z,990.28
2018-12-17T04:25:29.376Z,990.27
2018-12-17T04:26:29.531Z,990.26
2018-12-17T04:27:45.440Z,990.26
2018-12-17T04:28:29.812Z,990.28
2018-12-17T04:29:29.946Z,990.31
2018-12-17T04:30:30.079Z,990.33
2018-12-17T04:31:31.236Z,990.37
2018-12-17T04:32:30.366Z,990.40
2018-12-17T04:33:30.514Z,990.41
2018-12-17T04:34:30.640Z,990.41
2018-12-17T04:35:30.765Z,990.43
2018-12-17T04:36:30.893Z,990.44
2018-12-17T04:37:31.021Z,990.47
2018-12-17T04:38:31.178Z,990.47
2018-12-17T04:39:31.298Z,990.47
2018-12-17T04:40:31.441Z,990.46
2018-12-17T04:41:31.562Z,990.47
2018-12-17T04:42:31.717Z,990.49
2018-12-17T04:43:31.888Z,990.47
2018-12-17T04:44:32.019Z,990.51
2018-12-17T04:45:32.145Z,990.50
2018-12-17T04:46:32.318Z,990.48
2018-12-17T04:47:32.442Z,990.48
2018-12-17T04:48:32.563Z,990.52
2018-12-17T04:49:32.695Z,990.47
2018-12-17T04:50:32.842Z,990.53
2018-12-17T04:51:32.977Z,990.53
2018-12-17T04:52:33.109Z,990.60
2018-12-17T04:53:33.233Z,990.58
2018-12-17T04:54:33.365Z,990.56
2018-12-17T04:55:33.489Z,990.56
2018-12-17T04:56:33.617Z,990.55
2018-12-17T04:57:33.743Z,990.52
2018-12-17T04:58:33.897Z,990.52
2018-12-17T04:59:34.012Z,990.51
2018-12-17T05:00:34.142Z,990.53
2018-12-17T05:01:34.271Z,990.50
2018-12-17T05:02:34.407Z,990.53
2018-12-17T05:03:41.375Z,990.50
2018-12-17T05:04:34.622Z,990.53
2018-12-17T05:05:34.764Z,990.55
2018-12-17T05:06:34.916Z,990.55
2018-12-17T05:07:35.040Z,990.57
2018-12-17T05:08:35.175Z,990.52
2018-12-17T05:09:35.300Z,990.56
2018-12-17T05:10:35.424Z,990.60
2018-12-17T05:11:36.299Z,990.57
2018-12-17T05:12:35.710Z,990.53
2018-12-17T05:13:35.836Z,990.56
2018-12-17T05:14:35.968Z,990.54
2018-12-17T05:15:36.093Z,990.58
2018-12-17T05:16:36.216Z,990.55
2018-12-17T05:17:36.347Z,990.50
2018-12-17T05:18:36.469Z,990.57
2018-12-17T05:19:36.608Z,990.55
2018-12-17T05:20:36.728Z,990.59
2018-12-17T05:21:36.858Z,990.58
2018-12-17T05:22:36.989Z,990.65
2018-12-17T05:23:37.117Z,990.65
2018-12-17T05:24:37.242Z,990.62
2018-12-17T05:25:37.379Z,990.65
2018-12-17T05:26:37.522Z,990.60
2018-12-17T05:27:37.638Z,990.61
2018-12-17T05:28:37.767Z,990.61
2018-12-17T05:29:37.892Z,990.64
2018-12-17T05:30:38.021Z,990.68
2018-12-17T05:31:38.218Z,990.72
2018-12-17T05:32:38.281Z,990.69
2018-12-17T05:33:38.404Z,990.69
2018-12-17T05:34:38.532Z,990.74
2018-12-17T05:35:38.660Z,990.67
2018-12-17T05:36:38.786Z,990.74
2018-12-17T05:37:38.924Z,990.76
2018-12-17T05:38:39.043Z,990.87
2018-12-17T05:39:39.169Z,990.93
2018-12-17T05:40:39.299Z,990.98
2018-12-17T05:41:39.424Z,991.00
2018-12-17T05:42:40.315Z,991.03
2018-12-17T05:43:39.711Z,991.05
2018-12-17T05:44:39.840Z,991.03
2018-12-17T05:45:39.964Z,991.04
2018-12-17T05:46:40.089Z,991.09
2018-12-17T05:47:40.217Z,991.08
2018-12-17T05:48:40.344Z,991.13
2018-12-17T05:49:40.490Z,991.11
2018-12-17T05:50:40.619Z,991.09
2018-12-17T05:51:40.745Z,991.12
2018-12-17T05:52:40.876Z,991.07
2018-12-17T05:53:41.003Z,991.04
2018-12-17T05:54:41.169Z,991.04
2018-12-17T05:55:41.261Z,991.05
2018-12-17T05:56:41.386Z,991.09
2018-12-17T05:57:41.516Z,991.05
2018-12-17T05:58:41.645Z,991.03
2018-12-17T05:59:41.782Z,991.03
2018-12-17T06:00:41.905Z,991.00
2018-12-17T06:01:42.037Z,991.01
2018-12-17T06:02:42.207Z,990.99
2018-12-17T06:03:42.333Z,990.97
2018-12-17T06:04:42.464Z,990.99
2018-12-17T06:05:42.588Z,990.99
2018-12-17T06:06:42.729Z,990.96
2018-12-17T06:07:42.855Z,991.01
2018-12-17T06:08:43.822Z,991.01
2018-12-17T06:09:43.119Z,991.04
2018-12-17T06:10:43.244Z,991.01
2018-12-17T06:11:43.370Z,990.98
2018-12-17T06:12:43.495Z,991.01
2018-12-17T06:13:43.660Z,990.98
2018-12-17T06:14:43.778Z,991.00
2018-12-17T06:15:43.911Z,991.03
2018-12-17T06:16:44.040Z,991.12
2018-12-17T06:17:44.205Z,991.19
2018-12-17T06:20:16.497Z,991.26
2018-12-17T06:21:16.627Z,991.30
2018-12-17T06:22:16.759Z,991.29
2018-12-17T06:23:16.904Z,991.28
2018-12-17T06:24:17.028Z,991.30
2018-12-17T06:25:17.157Z,991.38
2018-12-17T06:26:17.293Z,991.38
2018-12-17T06:27:17.445Z,991.39
2018-12-17T06:28:25.452Z,991.38
2018-12-17T06:29:17.698Z,991.40
2018-12-17T06:30:17.827Z,991.43
2018-12-17T06:31:17.979Z,991.39
2018-12-17T06:32:19.108Z,991.40
2018-12-17T06:33:18.238Z,991.41
2018-12-17T06:34:18.364Z,991.44
2018-12-17T06:35:18.514Z,991.46
2018-12-17T06:36:18.715Z,991.45
2018-12-17T06:37:18.726Z,991.47
2018-12-17T06:38:18.857Z,991.49
2018-12-17T06:39:19.021Z,991.47
2018-12-17T06:40:19.145Z,991.47
2018-12-17T06:41:19.270Z,991.45
2018-12-17T06:42:19.393Z,991.42
2018-12-17T06:43:19.551Z,991.43
2018-12-17T06:44:19.797Z,991.47
2018-12-17T06:45:19.797Z,991.42
2018-12-17T06:46:19.926Z,991.44
2018-12-17T06:47:20.069Z,991.47
2018-12-17T06:48:20.238Z,991.47
2018-12-17T06:49:20.364Z,991.51
2018-12-17T06:50:20.497Z,991.55
2018-12-17T06:51:20.649Z,991.56
2018-12-17T06:52:20.778Z,991.57
2018-12-17T06:53:20.900Z,991.57
2018-12-17T06:54:21.024Z,991.58
2018-12-17T06:55:21.173Z,991.59
2018-12-17T06:56:21.295Z,991.62
2018-12-17T06:57:21.429Z,991.60
2018-12-17T06:58:21.555Z,991.64
2018-12-17T06:59:21.710Z,991.66
2018-12-17T07:00:21.828Z,991.66
2018-12-17T07:01:21.958Z,991.67
2018-12-17T07:02:22.088Z,991.64
2018-12-17T07:03:22.219Z,991.67
2018-12-17T07:04:22.392Z,991.68
2018-12-17T07:05:22.514Z,991.66
2018-12-17T07:06:22.644Z,991.69
2018-12-17T07:07:22.793Z,991.68
2018-12-17T07:08:22.911Z,991.70
2018-12-17T07:09:23.750Z,991.74
2018-12-17T07:10:23.197Z,991.70
2018-12-17T07:11:23.315Z,991.71
2018-12-17T07:12:23.442Z,991.70
2018-12-17T07:13:23.571Z,991.67
2018-12-17T07:14:23.715Z,991.69
2018-12-17T07:15:23.896Z,991.67
2018-12-17T07:16:24.021Z,991.74
2018-12-17T07:17:24.151Z,991.67
2018-12-17T07:18:24.285Z,991.72
2018-12-17T07:19:48.652Z,991.67
2018-12-17T07:20:24.523Z,991.76
2018-12-17T07:21:24.656Z,991.78
2018-12-17T07:22:24.793Z,991.80
2018-12-17T07:23:24.924Z,991.81
2018-12-17T07:24:25.051Z,991.86
2018-12-17T07:25:25.199Z,991.88
2018-12-17T07:26:25.335Z,991.91
2018-12-17T07:27:25.465Z,991.82
2018-12-17T07:28:25.587Z,991.88
2018-12-17T07:29:25.737Z,991.90
2018-12-17T07:30:25.859Z,991.88
2018-12-17T07:31:25.986Z,991.88
2018-12-17T07:32:26.119Z,991.89
2018-12-17T07:33:26.257Z,991.96
2018-12-17T07:34:34.429Z,991.91
2018-12-17T07:35:26.556Z,991.97
2018-12-17T07:36:26.689Z,991.92
2018-12-17T07:37:26.829Z,991.94
2018-12-17T07:38:26.998Z,992.02
2018-12-17T07:40:58.827Z,992.04
2018-12-17T07:41:58.953Z,992.02
2018-12-17T07:42:59.085Z,992.07
2018-12-17T07:43:59.206Z,992.10
2018-12-17T07:44:59.333Z,992.08
2018-12-17T07:45:59.461Z,992.09
2018-12-17T07:46:59.592Z,992.10
2018-12-17T07:47:59.719Z,992.10
2018-12-17T07:48:59.847Z,992.12
2018-12-17T07:49:59.972Z,992.16
2018-12-17T07:51:00.106Z,992.13
2018-12-17T07:52:00.232Z,992.17
2018-12-17T07:53:00.362Z,992.19
2018-12-17T07:54:00.487Z,992.24
2018-12-17T07:55:00.614Z,992.24
2018-12-17T07:56:00.743Z,992.26
2018-12-17T07:57:00.879Z,992.25
2018-12-17T07:58:01.008Z,992.27
2018-12-17T07:59:01.141Z,992.32
2018-12-17T08:00:01.270Z,992.31
2018-12-17T08:01:01.401Z,992.32
2018-12-17T08:02:01.532Z,992.30
2018-12-17T08:03:01.663Z,992.31
2018-12-17T08:04:01.793Z,992.29
2018-12-17T08:05:01.918Z,992.29
2018-12-17T08:06:02.045Z,992.30
2018-12-17T08:07:02.176Z,992.33
2018-12-17T08:08:02.301Z,992.30
2018-12-17T08:09:02.432Z,992.29
2018-12-17T08:10:02.566Z,992.31
2018-12-17T08:11:02.688Z,992.32
2018-12-17T08:12:02.819Z,992.39
2018-12-17T08:13:02.945Z,992.38
2018-12-17T08:14:03.080Z,992.39
2018-12-17T08:15:03.209Z,992.40
2018-12-17T08:16:03.342Z,992.42
2018-12-17T08:17:04.049Z,992.45
2018-12-17T08:18:03.589Z,992.48
2018-12-17T08:19:03.714Z,992.49
2018-12-17T08:20:03.845Z,992.52
2018-12-17T08:21:03.974Z,992.48
2018-12-17T08:22:04.099Z,992.51
2018-12-17T08:23:04.224Z,992.51
2018-12-17T08:24:04.360Z,992.50
2018-12-17T08:25:04.484Z,992.48
2018-12-17T08:26:04.609Z,992.47
2018-12-17T08:27:04.737Z,992.48
2018-12-17T08:28:04.868Z,992.53
2018-12-17T08:29:05.071Z,992.53
2018-12-17T08:30:05.147Z,992.51
2018-12-17T08:31:05.283Z,992.53
2018-12-17T08:32:05.407Z,992.55
2018-12-17T08:33:05.542Z,992.52
2018-12-17T08:34:05.666Z,992.59
2018-12-17T08:35:05.795Z,992.56
2018-12-17T08:36:05.926Z,992.59
2018-12-17T08:37:06.047Z,992.62
2018-12-17T08:38:06.190Z,992.65
2018-12-17T08:39:06.330Z,992.60
2018-12-17T08:40:06.457Z,992.65
2018-12-17T08:41:06.587Z,992.64
2018-12-17T08:42:06.733Z,992.66
2018-12-17T08:43:06.886Z,992.71
2018-12-17T08:44:07.005Z,992.71
2018-12-17T08:45:07.138Z,992.68
2018-12-17T08:46:07.281Z,992.73
2018-12-17T08:47:07.922Z,992.72
2018-12-17T08:48:07.553Z,992.76
2018-12-17T08:49:07.677Z,992.76
2018-12-17T08:50:07.812Z,992.78
2018-12-17T08:51:07.934Z,992.73
2018-12-17T08:52:08.061Z,992.73
2018-12-17T08:53:08.188Z,992.78
2018-12-17T08:54:08.317Z,992.80
2018-12-17T08:55:08.447Z,992.81
2018-12-17T08:56:08.576Z,992.77
2018-12-17T08:57:08.711Z,992.75
2018-12-17T08:58:08.861Z,992.77
2018-12-17T08:59:09.029Z,992.78
2018-12-17T09:00:11.223Z,992.78
2018-12-17T09:01:09.335Z,992.80
2018-12-17T09:02:09.488Z,992.82
2018-12-17T09:03:09.671Z,992.83
2018-12-17T09:04:09.682Z,992.83
2018-12-17T09:05:09.818Z,992.85
2018-12-17T09:06:09.966Z,992.82
2018-12-17T09:07:12.577Z,992.87
2018-12-17T09:08:10.214Z,992.93
2018-12-17T09:09:10.341Z,992.93
2018-12-17T09:10:10.479Z,992.95
2018-12-17T09:11:10.602Z,992.95
2018-12-17T09:12:10.745Z,992.97
2018-12-17T09:13:10.870Z,993.01
2018-12-17T09:14:11.008Z,993.00
2018-12-17T09:15:11.134Z,993.01
2018-12-17T09:16:11.264Z,993.02
2018-12-17T09:17:11.395Z,993.02
2018-12-17T09:18:11.545Z,993.02
2018-12-17T09:19:26.370Z,993.03
2018-12-17T09:20:11.736Z,993.10
2018-12-17T09:21:11.866Z,993.05
2018-12-17T09:22:12.003Z,993.07
2018-12-17T09:23:12.158Z,993.07
2018-12-17T09:24:12.287Z,993.07
2018-12-17T09:25:12.411Z,993.03
2018-12-17T09:26:12.567Z,993.08
2018-12-17T09:27:49.014Z,993.07
2018-12-17T09:28:12.752Z,993.10
2018-12-17T09:29:12.892Z,993.14
2018-12-17T09:30:18.239Z,993.16
2018-12-17T09:31:13.177Z,993.21
2018-12-17T09:32:13.302Z,993.20
2018-12-17T09:33:13.436Z,993.18
2018-12-17T09:34:13.610Z,993.18
2018-12-17T09:36:46.181Z,993.19
2018-12-17T09:37:46.310Z,993.21
2018-12-17T09:38:46.439Z,993.25
2018-12-17T09:39:46.606Z,993.23
2018-12-17T09:40:46.730Z,993.26
2018-12-17T09:41:46.860Z,993.28
2018-12-17T09:42:46.989Z,993.29
2018-12-17T09:43:47.129Z,993.27
2018-12-17T09:44:47.249Z,993.30
2018-12-17T09:45:47.385Z,993.29
2018-12-17T09:46:47.516Z,993.34
2018-12-17T09:47:47.647Z,993.38
2018-12-17T09:48:47.779Z,993.41
2018-12-17T09:49:47.930Z,993.41
2018-12-17T09:50:48.071Z,993.42
2018-12-17T09:51:48.224Z,993.39
2018-12-17T09:52:48.344Z,993.42
2018-12-17T09:53:48.534Z,993.40
2018-12-17T09:54:48.610Z,993.40
2018-12-17T09:55:48.753Z,993.34
2018-12-17T09:56:48.878Z,993.30
2018-12-17T09:57:49.013Z,993.34
2018-12-17T09:58:49.142Z,993.30
2018-12-17T09:59:49.298Z,993.33
2018-12-17T10:00:49.414Z,993.30
2018-12-17T10:01:49.539Z,993.33
2018-12-17T10:02:49.669Z,993.36
2018-12-17T10:03:49.814Z,993.38
2018-12-17T10:04:49.941Z,993.35
2018-12-17T10:05:50.070Z,993.36
2018-12-17T10:06:50.196Z,993.37
2018-12-17T10:07:50.351Z,993.36
2018-12-17T10:08:50.467Z,993.35
2018-12-17T10:09:50.597Z,993.33
2018-12-17T10:10:50.712Z,993.31
2018-12-17T10:11:50.889Z,993.33
2018-12-17T10:12:51.013Z,993.28
2018-12-17T10:13:51.142Z,993.34
2018-12-17T10:14:51.275Z,993.31
2018-12-17T10:15:51.477Z,993.30
2018-12-17T10:16:51.479Z,993.34
2018-12-17T10:17:51.614Z,993.34
2018-12-17T10:18:51.739Z,993.33
2018-12-17T10:19:51.895Z,993.41
2018-12-17T10:20:52.022Z,993.33
2018-12-17T10:21:52.173Z,993.35
2018-12-17T10:22:52.281Z,993.38
2018-12-17T10:23:52.416Z,993.37
2018-12-17T10:24:52.602Z,993.40
2018-12-17T10:25:52.735Z,993.43
2018-12-17T10:26:52.863Z,993.40
2018-12-17T10:27:53.016Z,993.44
2018-12-17T10:28:53.140Z,993.46
2018-12-17T10:29:53.273Z,993.48
2018-12-17T10:30:53.403Z,993.44
2018-12-17T10:31:53.541Z,993.43
2018-12-17T10:32:53.665Z,993.38
2018-12-17T10:35:26.402Z,993.43
2018-12-17T10:36:26.539Z,993.43
2018-12-17T10:37:26.680Z,993.44
2018-12-17T10:38:26.803Z,993.44
2018-12-17T10:39:26.938Z,993.42
2018-12-17T10:40:27.105Z,993.39
2018-12-17T10:41:27.207Z,993.36
2018-12-17T10:42:27.342Z,993.46
2018-12-17T10:43:27.470Z,993.42
2018-12-17T10:44:28.117Z,993.37
2018-12-17T10:45:27.756Z,993.43
2018-12-17T10:46:27.883Z,993.40
2018-12-17T10:47:28.005Z,993.39
2018-12-17T10:48:28.149Z,993.42
2018-12-17T10:49:28.274Z,993.41
2018-12-17T10:50:29.398Z,993.44
2018-12-17T10:51:28.537Z,993.42
2018-12-17T10:52:28.676Z,993.46
2018-12-17T10:53:28.878Z,993.42
2018-12-17T10:54:28.926Z,993.44
2018-12-17T10:55:29.061Z,993.42
2018-12-17T10:56:29.263Z,993.38
2018-12-17T10:57:29.268Z,993.39
2018-12-17T10:58:29.399Z,993.42
2018-12-17T10:59:29.553Z,993.43
2018-12-17T11:00:29.703Z,993.37
2018-12-17T11:01:29.831Z,993.39
2018-12-17T11:02:29.963Z,993.31
2018-12-17T11:03:30.099Z,993.34
2018-12-17T11:04:30.231Z,993.33
2018-12-17T11:05:30.361Z,993.29
2018-12-17T11:06:30.487Z,993.31
2018-12-17T11:07:30.637Z,993.38
2018-12-17T11:08:30.876Z,993.34
2018-12-17T11:09:30.880Z,993.29
2018-12-17T11:10:31.009Z,993.43
2018-12-17T11:11:31.168Z,993.37
2018-12-17T11:12:31.290Z,993.33
2018-12-17T11:13:31.410Z,993.32
2018-12-17T11:14:31.587Z,993.31
2018-12-17T11:15:31.606Z,993.24
2018-12-17T11:16:31.739Z,993.21
2018-12-17T11:17:31.873Z,993.35
2018-12-17T11:18:31.998Z,993.32
2018-12-17T11:19:32.129Z,993.31
2018-12-17T11:20:32.250Z,993.21
2018-12-17T11:21:32.384Z,993.14
2018-12-17T11:22:32.505Z,993.14
2018-12-17T11:23:32.639Z,993.16
2018-12-17T11:24:32.766Z,993.15
2018-12-17T11:25:32.893Z,993.15
2018-12-17T11:26:33.018Z,993.19
2018-12-17T11:27:33.149Z,993.14
2018-12-17T11:28:33.292Z,993.09
2018-12-17T11:29:33.414Z,993.05
2018-12-17T11:30:33.540Z,993.11
2018-12-17T11:31:33.672Z,993.12
2018-12-17T11:32:33.797Z,993.08
2018-12-17T11:33:33.945Z,993.04
2018-12-17T11:34:34.071Z,993.05
2018-12-17T11:35:34.218Z,993.09
2018-12-17T11:36:34.349Z,993.10
2018-12-17T11:37:34.489Z,993.14
2018-12-17T11:38:34.634Z,993.13
2018-12-17T11:39:34.766Z,993.09
2018-12-17T11:40:34.919Z,993.03
2018-12-17T11:41:35.109Z,993.10
2018-12-17T11:42:35.162Z,993.04
2018-12-17T11:43:35.297Z,993.05
2018-12-17T11:44:35.457Z,993.05
2018-12-17T11:45:35.575Z,993.05
2018-12-17T11:46:35.700Z,993.04
2018-12-17T11:47:35.829Z,993.02
2018-12-17T11:48:35.985Z,993.04
2018-12-17T11:49:36.122Z,993.08
2018-12-17T11:50:36.247Z,993.09
2018-12-17T11:51:36.402Z,993.12
2018-12-17T11:52:36.602Z,993.10
2018-12-17T11:53:36.603Z,993.11
2018-12-17T11:54:36.734Z,993.07
2018-12-17T11:55:36.891Z,993.06
2018-12-17T11:56:37.015Z,993.03
2018-12-17T11:57:37.147Z,993.08
2018-12-17T11:58:37.275Z,993.10
2018-12-17T11:59:37.423Z,993.10
2018-12-17T12:00:37.548Z,993.08
2018-12-17T12:01:37.673Z,993.10
2018-12-17T12:02:37.813Z,993.13
2018-12-17T12:03:37.937Z,993.06
2018-12-17T12:04:38.066Z,993.13
2018-12-17T12:05:38.196Z,993.10
2018-12-17T12:06:38.333Z,993.14
2018-12-17T12:07:38.463Z,993.12
2018-12-17T12:08:38.589Z,993.15
2018-12-17T12:09:38.713Z,993.12
2018-12-17T12:10:38.846Z,993.13
2018-12-17T12:11:38.969Z,993.13
2018-12-17T12:12:39.104Z,993.12
2018-12-17T12:13:39.240Z,993.13
2018-12-17T12:14:39.384Z,993.10
2018-12-17T12:15:39.509Z,993.11
2018-12-17T12:16:39.636Z,993.17
2018-12-17T12:17:39.765Z,993.11
2018-12-17T12:18:39.895Z,993.17
2018-12-17T12:19:40.028Z,993.19
2018-12-17T12:20:40.161Z,993.17
2018-12-17T12:21:40.292Z,993.16
2018-12-17T12:22:40.415Z,993.18
2018-12-17T12:23:40.550Z,993.19
2018-12-17T12:24:41.484Z,993.20
2018-12-17T12:25:40.756Z,993.22
2018-12-17T12:26:40.887Z,993.22
2018-12-17T12:27:41.017Z,993.24
2018-12-17T12:28:41.144Z,993.29
2018-12-17T12:29:41.312Z,993.21
2018-12-17T12:30:41.439Z,993.26
2018-12-17T12:31:42.524Z,993.26
2018-12-17T12:32:41.690Z,993.24
2018-12-17T12:33:41.808Z,993.21
2018-12-17T12:34:41.937Z,993.24
2018-12-17T12:35:42.063Z,993.25
2018-12-17T12:36:42.206Z,993.22
2018-12-17T12:37:42.332Z,993.25